Relief, North Carolina
Current Conditions -  °F | °C
As of 2:55 AM on Tuesday 27 Jan 2015 (Local Time) from K0A9 Reporting Station
Overcast Overcast  
Wind Chill: 27°   Ceiling: 2900
Heat Index: 27°   Visibility: 10mi
Dew Point: 21°   Wind: 3mph
Humidity: 80%   Direction: 270°W
Pressure: 29.83"   Gusts: NA
Location:  35.955°N, 82.2044°W
Report Text: K0A9 270755Z AUTO 27003KT 10SM FEW022 OVC029 M03/M06 A2983 RMK
Loading
Personal Weather Stations






























Interactive Weather Map New forecast layout! Learn more

10-Day Weather Forecast

Advertisements
Track Severe Weather on mobile